Time;durP1;ratioP1;P1;durP2;ratioP2;P2;SDS_P1;SDS_P2;PMS_P1;PMS_P2;Temp;Humidity;BMP_temperature;BMP_pressure;BME280_temperature;BME280_humidity;BME280_pressure;Samples;Min_cycle;Max_cycle;Signal;HPM_P1;HPM_P2
2022/03/03 00:01:49;;;;;;;30.70;17.17;;;0.40;99.90;;;;;;5070574;28;20372;-54
2022/03/03 00:04:15;;;;;;;33.60;17.60;;;0.60;99.90;;;;;;5071193;28;20434;-54
2022/03/03 00:06:40;;;;;;;29.20;16.30;;;1.90;99.90;;;;;;5070864;28;20383;-57
2022/03/03 00:09:06;;;;;;;31.13;17.30;;;0.70;99.90;;;;;;5071400;28;20388;-54
2022/03/03 00:11:32;;;;;;;30.50;17.80;;;0.80;99.90;;;;;;5070800;28;20866;-54
2022/03/03 00:13:59;;;;;;;29.10;16.93;;;0.70;99.90;;;;;;5070452;28;20394;-54
2022/03/03 00:16:26;;;;;;;32.25;18.00;;;1.20;99.90;;;;;;5070992;28;20388;-54
2022/03/03 00:18:52;;;;;;;27.88;16.40;;;0.70;99.90;;;;;;5062473;28;20510;-54
2022/03/03 00:21:18;;;;;;;32.85;18.55;;;0.90;99.90;;;;;;5057832;28;20401;-54
2022/03/03 00:23:44;;;;;;;33.00;17.00;;;1.10;99.90;;;;;;5059463;28;20857;-54
2022/03/03 00:26:10;;;;;;;34.15;18.70;;;0.60;99.90;;;;;;5050707;28;20461;-55
2022/03/03 00:28:35;;;;;;;31.75;17.50;;;0.60;99.90;;;;;;5051142;28;20401;-54
2022/03/03 00:31:01;;;;;;;35.03;19.00;;;0.50;99.90;;;;;;5050094;28;20522;-54
2022/03/03 00:33:27;;;;;;;32.43;17.63;;;0.50;99.90;;;;;;5050821;28;20378;-54
2022/03/03 00:35:52;;;;;;;33.85;18.63;;;0.60;99.90;;;;;;5050047;28;20374;-54
2022/03/03 00:38:18;;;;;;;31.27;18.27;;;0.50;99.90;;;;;;5050276;28;20390;-54
2022/03/03 00:40:44;;;;;;;34.90;18.10;;;1.40;99.90;;;;;;5049766;28;20858;-54
2022/03/03 00:43:09;;;;;;;37.05;19.48;;;0.50;99.90;;;;;;5032965;28;20390;-54
2022/03/03 00:45:36;;;;;;;34.03;18.30;;;0.40;99.90;;;;;;5050659;28;20767;-53
2022/03/03 00:48:03;;;;;;;33.78;17.90;;;0.20;99.90;;;;;;5049981;28;20797;-54
2022/03/03 00:50:29;;;;;;;31.38;18.15;;;0.30;99.90;;;;;;5050387;28;20595;-54
2022/03/03 00:52:54;;;;;;;33.53;18.90;;;0.30;99.90;;;;;;5048926;28;20421;-54
2022/03/03 00:55:20;;;;;;;32.63;17.33;;;0.20;99.90;;;;;;5050277;28;20455;-54
2022/03/03 00:57:45;;;;;;;30.20;17.00;;;0.20;99.90;;;;;;5049621;28;20385;-54
2022/03/03 01:00:12;;;;;;;32.17;17.23;;;0.20;99.90;;;;;;5049670;28;20584;-54
2022/03/03 01:02:38;;;;;;;30.08;17.70;;;0.30;99.90;;;;;;5050306;28;20373;-54
2022/03/03 01:05:05;;;;;;;32.50;17.70;;;0.10;99.90;;;;;;5057631;28;20395;-54
2022/03/03 01:07:31;;;;;;;30.95;17.45;;;0.20;99.90;;;;;;5053320;28;20383;-55
2022/03/03 01:09:57;;;;;;;30.83;17.73;;;0.10;99.90;;;;;;5069301;28;20391;-54
2022/03/03 01:12:22;;;;;;;34.07;18.83;;;0.10;99.90;;;;;;5058853;28;20866;-54
2022/03/03 01:14:48;;;;;;;33.50;18.70;;;0.10;99.90;;;;;;5049195;28;20869;-54
2022/03/03 01:17:15;;;;;;;33.00;18.55;;;0.10;99.90;;;;;;5049840;28;20389;-54
2022/03/03 01:19:41;;;;;;;38.95;19.48;;;0.10;99.90;;;;;;5049725;28;20421;-57
2022/03/03 01:22:07;;;;;;;32.35;18.95;;;0.10;99.90;;;;;;5052265;28;20416;-54
2022/03/03 01:24:33;;;;;;;33.03;18.80;;;0.10;99.90;;;;;;5059080;28;20405;-54
2022/03/03 01:26:58;;;;;;;34.63;19.47;;;0.10;99.90;;;;;;5049143;28;20377;-54
2022/03/03 01:29:25;;;;;;;40.23;19.40;;;0.10;99.90;;;;;;5049718;28;20464;-54
2022/03/03 01:31:50;;;;;;;38.33;19.23;;;0.10;99.90;;;;;;5049039;28;20382;-54
2022/03/03 01:34:16;;;;;;;34.47;18.70;;;0.00;99.90;;;;;;5049966;28;20388;-54
2022/03/03 01:36:43;;;;;;;33.00;18.13;;;-0.10;99.90;;;;;;5049349;28;20385;-57
2022/03/03 01:39:09;;;;;;;33.75;17.73;;;-0.10;99.90;;;;;;5048916;28;20904;-54
2022/03/03 01:41:35;;;;;;;34.05;17.55;;;-0.10;99.90;;;;;;5048965;28;20725;-54
2022/03/03 01:44:01;;;;;;;31.88;17.27;;;-0.10;99.90;;;;;;5048994;28;20381;-54
2022/03/03 01:46:27;;;;;;;31.83;16.85;;;-0.10;99.90;;;;;;5049211;28;20382;-54
2022/03/03 01:48:53;;;;;;;33.87;18.40;;;-0.20;99.90;;;;;;5048461;28;20478;-54
2022/03/03 01:51:18;;;;;;;35.20;18.98;;;0.50;99.90;;;;;;5049225;28;20397;-54
2022/03/03 01:53:44;;;;;;;38.63;19.47;;;-0.10;99.90;;;;;;5048684;28;20914;-56
2022/03/03 01:56:09;;;;;;;39.20;20.50;;;-0.10;99.90;;;;;;5049223;28;20392;-54
2022/03/03 01:58:37;;;;;;;43.58;20.23;;;-0.10;99.90;;;;;;5049242;28;20389;-54
2022/03/03 02:01:03;;;;;;;39.33;19.83;;;-0.20;99.90;;;;;;5048353;28;20724;-56
2022/03/03 02:03:29;;;;;;;39.58;20.45;;;-0.20;99.90;;;;;;5048947;28;20381;-54
2022/03/03 02:05:55;;;;;;;38.47;19.60;;;0.00;99.90;;;;;;5048525;28;20705;-54
2022/03/03 02:08:22;;;;;;;44.03;21.70;;;-0.10;99.90;;;;;;5049104;28;20485;-54
2022/03/03 02:10:48;;;;;;;37.63;19.55;;;-1.20;99.90;;;;;;5048449;28;20400;-54
2022/03/03 02:13:14;;;;;;;46.53;20.92;;;-0.20;99.90;;;;;;5049636;28;20867;-54
2022/03/03 02:15:47;;;;;;;37.50;20.83;;;-0.40;99.90;;;;;;5049240;28;20389;-54
2022/03/03 02:18:13;;;;;;;39.92;21.23;;;-0.40;99.90;;;;;;5048882;28;20433;-54
2022/03/03 02:20:38;;;;;;;39.30;20.30;;;-0.50;99.90;;;;;;5048775;28;20457;-54
2022/03/03 02:23:04;;;;;;;35.97;19.60;;;-0.40;99.90;;;;;;5047975;28;20887;-54
2022/03/03 02:25:30;;;;;;;39.35;20.42;;;-0.40;99.90;;;;;;5049382;28;20392;-54
2022/03/03 02:27:56;;;;;;;38.50;20.33;;;-0.50;99.90;;;;;;5048454;28;20392;-54
2022/03/03 02:30:21;;;;;;;34.42;17.90;;;-0.50;99.90;;;;;;5049087;28;20724;-54
2022/03/03 02:32:47;;;;;;;34.25;19.48;;;-0.50;99.90;;;;;;5048537;28;20460;-54
2022/03/03 02:35:13;;;;;;;35.97;19.10;;;-0.50;99.90;;;;;;5048915;28;20374;-54
2022/03/03 02:37:42;;;;;;;34.10;18.05;;;-0.30;99.90;;;;;;5048801;28;20399;-54
2022/03/03 02:40:20;;;;;;;33.97;18.30;;;-0.40;99.90;;;;;;5048312;28;20405;-54
2022/03/03 02:42:47;;;;;;;35.03;19.83;;;-0.60;99.90;;;;;;5048429;28;20385;-55
2022/03/03 02:45:12;;;;;;;37.30;20.13;;;-0.70;99.90;;;;;;5048835;28;20881;-54
2022/03/03 02:47:45;;;;;;;35.00;18.23;;;-0.70;99.90;;;;;;5048963;28;20385;-54
2022/03/03 02:50:13;;;;;;;32.80;17.88;;;-0.80;99.90;;;;;;5049461;28;20394;-53
2022/03/03 02:52:39;;;;;;;34.83;18.80;;;-0.70;99.90;;;;;;5048858;28;20384;-54
2022/03/03 02:55:06;;;;;;;31.35;18.30;;;-0.80;99.90;;;;;;5048135;28;20467;-54
2022/03/03 03:00:17;;;;;;;34.17;20.08;;;-0.80;99.90;;;;;;5048776;28;20436;-54
2022/03/03 03:02:42;;;;;;;37.30;20.80;;;-0.80;99.90;;;;;;5048439;28;20397;-56
2022/03/03 03:05:09;;;;;;;36.33;20.08;;;-0.70;99.90;;;;;;5048555;28;20728;-54
2022/03/03 03:07:35;;;;;;;37.92;20.55;;;-0.70;99.90;;;;;;5048810;28;20373;-54
2022/03/03 03:10:02;;;;;;;38.00;20.67;;;-0.60;99.90;;;;;;5047647;28;20382;-54
2022/03/03 03:12:28;;;;;;;36.83;20.55;;;-0.60;99.90;;;;;;5031819;28;20404;-54
2022/03/03 03:14:54;;;;;;;35.30;19.95;;;-0.60;99.90;;;;;;5052776;28;20413;-54
2022/03/03 03:17:20;;;;;;;34.17;19.65;;;-0.60;99.90;;;;;;5062073;28;20382;-54
2022/03/03 03:19:45;;;;;;;36.30;20.03;;;-0.50;99.90;;;;;;5071595;28;20419;-56
2022/03/03 03:22:11;;;;;;;34.80;19.87;;;-0.50;99.90;;;;;;5052241;28;20412;-53
2022/03/03 03:24:37;;;;;;;33.75;18.92;;;-0.60;99.90;;;;;;5033731;28;20401;-54
2022/03/03 03:27:04;;;;;;;34.73;19.20;;;-0.50;99.90;;;;;;5051445;28;20381;-53
2022/03/03 03:29:29;;;;;;;33.90;18.60;;;-0.60;99.90;;;;;;5052407;28;20924;-54
2022/03/03 03:31:55;;;;;;;41.00;19.10;;;0.00;99.90;;;;;;5051230;28;20386;-54
2022/03/03 03:34:20;;;;;;;33.47;19.02;;;-0.90;99.90;;;;;;5052203;28;20843;-55
2022/03/03 03:36:46;;;;;;;35.20;18.80;;;-0.80;99.90;;;;;;5051117;28;20435;-56
2022/03/03 03:39:12;;;;;;;34.70;20.30;;;-0.80;99.90;;;;;;5051953;28;20409;-54
2022/03/03 03:41:37;;;;;;;31.83;18.50;;;0.50;99.90;;;;;;5034177;28;20446;-56
2022/03/03 03:44:03;;;;;;;32.65;17.35;;;-0.80;99.90;;;;;;5051419;28;20421;-54
2022/03/03 03:46:29;;;;;;;34.37;20.00;;;-0.60;99.90;;;;;;5051959;28;20381;-54
2022/03/03 03:48:54;;;;;;;36.00;19.00;;;-0.60;99.90;;;;;;5033235;28;20433;-54
2022/03/03 03:51:20;;;;;;;38.22;19.15;;;-0.70;99.90;;;;;;5051943;28;20387;-54
2022/03/03 03:53:46;;;;;;;37.17;19.57;;;-0.80;99.90;;;;;;5051401;28;20378;-56
2022/03/03 03:56:14;;;;;;;39.33;19.83;;;-0.70;99.90;;;;;;5051390;28;20408;-54
2022/03/03 03:58:40;;;;;;;36.77;20.47;;;-0.50;99.90;;;;;;5051672;28;20496;-54
2022/03/03 04:01:05;;;;;;;35.90;20.30;;;0.00;99.90;;;;;;5050945;28;20450;-54
2022/03/03 04:03:31;;;;;;;37.17;19.70;;;-0.40;99.90;;;;;;5051850;28;20894;-52
2022/03/03 04:05:57;;;;;;;36.95;20.15;;;-0.40;99.90;;;;;;5050530;28;20381;-52
2022/03/03 04:08:22;;;;;;;35.45;19.38;;;-0.40;99.90;;;;;;5051583;28;20816;-53
2022/03/03 04:10:48;;;;;;;36.03;18.53;;;-0.50;99.90;;;;;;5032793;28;20806;-54
2022/03/03 04:13:15;;;;;;;35.58;18.10;;;-0.60;99.90;;;;;;5068132;28;20799;-54
2022/03/03 04:15:41;;;;;;;35.22;18.25;;;-0.70;99.90;;;;;;5071335;28;20372;-54
2022/03/03 04:18:07;;;;;;;31.98;19.05;;;-0.70;99.90;;;;;;5070579;28;20391;-54
2022/03/03 04:20:32;;;;;;;35.17;18.90;;;-0.80;99.90;;;;;;5053222;28;20415;-54
2022/03/03 04:22:58;;;;;;;36.15;18.83;;;-0.80;99.90;;;;;;5070138;28;20458;-54
2022/03/03 04:25:24;;;;;;;35.20;19.00;;;-0.10;99.90;;;;;;5070935;28;20431;-54
2022/03/03 04:27:50;;;;;;;33.60;19.05;;;-0.90;99.90;;;;;;5069643;28;20850;-54
2022/03/03 04:30:16;;;;;;;37.58;19.90;;;-1.00;99.90;;;;;;5071124;28;20753;-55
2022/03/03 04:32:41;;;;;;;33.15;18.92;;;-1.10;99.90;;;;;;5070791;28;20904;-54
2022/03/03 04:35:08;;;;;;;35.83;19.42;;;-1.00;99.90;;;;;;5070677;28;20392;-54
2022/03/03 04:37:35;;;;;;;33.63;18.55;;;-1.00;99.90;;;;;;5071109;28;20912;-54
2022/03/03 04:40:01;;;;;;;34.05;18.73;;;-1.00;99.90;;;;;;5052298;28;20481;-54
2022/03/03 04:42:26;;;;;;;33.20;18.77;;;-1.00;99.90;;;;;;5071041;28;20376;-54
2022/03/03 04:44:52;;;;;;;37.90;18.65;;;-1.00;99.90;;;;;;5070153;28;20467;-54
2022/03/03 04:47:17;;;;;;;36.50;18.70;;;-1.10;99.90;;;;;;5070965;28;20433;-54
2022/03/03 04:49:43;;;;;;;34.40;19.03;;;-1.20;99.90;;;;;;5070740;28;20422;-56
2022/03/03 04:52:09;;;;;;;38.30;20.33;;;-1.20;99.90;;;;;;5070281;28;20433;-54
2022/03/03 04:54:35;;;;;;;36.58;20.35;;;-1.20;99.90;;;;;;5070677;28;20794;-54
2022/03/03 04:57:01;;;;;;;39.75;19.50;;;-1.20;99.90;;;;;;5069933;28;20892;-54
2022/03/03 04:59:27;;;;;;;34.90;18.65;;;-1.10;99.90;;;;;;5070544;28;20400;-54
2022/03/03 05:01:52;;;;;;;32.22;18.67;;;-1.10;99.90;;;;;;5065826;28;20743;-54
2022/03/03 05:04:19;;;;;;;32.67;17.80;;;-0.90;99.90;;;;;;5057491;28;20439;-54
2022/03/03 05:06:46;;;;;;;33.67;18.63;;;-1.20;99.90;;;;;;5064950;28;20511;-56
2022/03/03 05:09:12;;;;;;;31.77;18.95;;;-1.20;99.90;;;;;;5069234;28;20418;-54
2022/03/03 05:11:37;;;;;;;36.95;19.00;;;-1.10;99.90;;;;;;5068706;28;20446;-54
2022/03/03 05:14:03;;;;;;;34.15;18.88;;;-1.00;99.90;;;;;;5051007;28;20786;-54
2022/03/03 05:16:29;;;;;;;35.22;19.20;;;-1.20;99.90;;;;;;5069988;28;20376;-54
2022/03/03 05:18:54;;;;;;;33.90;19.30;;;-1.20;99.90;;;;;;5068112;28;20421;-54
2022/03/03 05:21:20;;;;;;;38.33;20.40;;;-1.20;99.90;;;;;;5069986;28;20446;-54
2022/03/03 05:23:46;;;;;;;38.85;20.73;;;-1.40;99.90;;;;;;5069649;28;20570;-56
2022/03/03 05:26:12;;;;;;;37.63;19.80;;;-1.40;99.90;;;;;;5065111;28;20401;-54
2022/03/03 05:28:38;;;;;;;36.42;19.40;;;-1.40;99.90;;;;;;5061067;28;20761;-56
2022/03/03 05:31:03;;;;;;;35.55;18.38;;;-1.30;99.90;;;;;;5058481;28;20392;-55
2022/03/03 05:33:30;;;;;;;39.77;19.80;;;-1.70;99.90;;;;;;5069998;28;20868;-55
2022/03/03 05:36:02;;;;;;;36.83;19.00;;;-1.60;99.90;;;;;;5068285;28;20396;-56
2022/03/03 05:38:31;;;;;;;35.10;18.63;;;-1.40;99.90;;;;;;5069796;28;20404;-55
2022/03/03 05:40:57;;;;;;;37.83;19.25;;;-1.60;99.90;;;;;;5069262;28;20474;-55
2022/03/03 05:43:24;;;;;;;39.63;19.48;;;-1.40;99.90;;;;;;5069926;28;20384;-55
2022/03/03 05:45:51;;;;;;;37.88;19.95;;;-1.30;99.90;;;;;;5050355;28;20780;-56
2022/03/03 05:48:19;;;;;;;34.33;18.40;;;-1.20;99.90;;;;;;5050275;28;20498;-58
2022/03/03 05:50:45;;;;;;;34.85;18.33;;;-0.80;99.90;;;;;;5041850;28;20967;-56
2022/03/03 05:53:11;;;;;;;35.38;19.33;;;-1.20;99.90;;;;;;5063334;28;20900;-55
2022/03/03 05:55:44;;;;;;;34.10;19.10;;;-1.30;99.90;;;;;;5068777;28;20407;-55
2022/03/03 05:58:19;;;;;;;34.80;19.17;;;-1.20;99.90;;;;;;5069090;28;20445;-55
2022/03/03 06:00:47;;;;;;;41.40;20.15;;;-1.30;99.90;;;;;;5064049;28;20838;-56
2022/03/03 06:03:16;;;;;;;37.67;20.30;;;-0.80;99.90;;;;;;5068638;28;20391;-55
2022/03/03 06:05:56;;;;;;;45.40;20.13;;;-1.30;99.90;;;;;;5069657;28;20733;-55
2022/03/03 06:08:31;;;;;;;36.70;18.40;;;-1.40;99.90;;;;;;5066453;28;20386;-55
2022/03/03 06:11:02;;;;;;;34.97;19.33;;;-1.40;99.90;;;;;;5066780;28;20372;-55
2022/03/03 06:13:41;;;;;;;35.38;18.65;;;-1.20;99.90;;;;;;5069166;28;20486;-55
2022/03/03 06:16:08;;;;;;;35.05;19.42;;;-1.20;99.90;;;;;;5068483;28;20411;-55
2022/03/03 06:18:33;;;;;;;36.78;18.90;;;-1.20;99.90;;;;;;5066796;28;20401;-55
2022/03/03 06:21:00;;;;;;;36.92;18.80;;;-1.00;99.90;;;;;;5045790;28;20384;-55
2022/03/03 06:23:27;;;;;;;42.17;19.47;;;-0.80;99.90;;;;;;5067523;28;20415;-55
2022/03/03 06:26:15;;;;;;;41.77;22.10;;;-0.80;99.90;;;;;;5067893;28;20474;-55
2022/03/03 06:28:40;;;;;;;48.22;22.80;;;-0.70;99.90;;;;;;5065591;28;20407;-55
2022/03/03 06:31:07;;;;;;;43.37;22.27;;;1.00;99.90;;;;;;5064919;28;20388;-55
2022/03/03 06:33:34;;;;;;;45.73;24.30;;;0.10;99.90;;;;;;5069451;28;20395;-56
2022/03/03 06:36:00;;;;;;;43.40;23.92;;;1.10;99.90;;;;;;5068490;28;20467;-55
2022/03/03 06:38:26;;;;;;;35.53;20.75;;;3.40;99.90;;;;;;5068068;28;20915;-56
2022/03/03 06:40:54;;;;;;;35.93;20.80;;;3.00;99.90;;;;;;5066937;28;20454;-56
2022/03/03 06:43:19;;;;;;;31.13;18.48;;;3.20;99.90;;;;;;5056651;28;20379;-55
2022/03/03 06:45:45;;;;;;;29.92;17.90;;;2.60;99.90;;;;;;5058099;28;20381;-55
2022/03/03 06:48:11;;;;;;;29.30;18.13;;;2.40;99.90;;;;;;5065950;28;20414;-57
2022/03/03 06:50:39;;;;;;;31.30;17.83;;;2.50;99.90;;;;;;5071718;28;20711;-55
2022/03/03 06:53:07;;;;;;;31.92;18.05;;;3.20;99.90;;;;;;5059980;28;20396;-55
2022/03/03 06:55:33;;;;;;;31.27;17.50;;;3.30;99.90;;;;;;5063330;28;20461;-55
2022/03/03 06:58:00;;;;;;;30.17;17.15;;;3.70;99.90;;;;;;5051969;28;20389;-55
2022/03/03 07:00:34;;;;;;;27.45;17.55;;;4.40;99.90;;;;;;5063357;28;20439;-55
2022/03/03 07:03:01;;;;;;;32.42;19.45;;;4.70;99.90;;;;;;5067233;28;20478;-54
2022/03/03 07:05:28;;;;;;;31.77;18.88;;;5.70;99.90;;;;;;5062100;28;20400;-56
2022/03/03 07:07:55;;;;;;;36.15;20.13;;;7.00;99.90;;;;;;5071863;28;20386;-56
2022/03/03 07:10:25;;;;;;;37.88;24.88;;;8.20;99.90;;;;;;5071504;28;20428;-56
2022/03/03 07:12:52;;;;;;;32.97;22.17;;;8.90;99.90;;;;;;5072062;28;20868;-58
2022/03/03 07:15:18;;;;;;;31.03;21.07;;;9.20;99.90;;;;;;5072055;28;20380;-56
2022/03/03 07:18:01;;;;;;;33.53;22.60;;;10.10;99.90;;;;;;5054573;28;20398;-56
2022/03/03 07:20:48;;;;;;;37.10;23.45;;;9.70;99.90;;;;;;5072329;28;20411;-54
2022/03/03 07:23:38;;;;;;;35.53;23.77;;;11.00;89.40;;;;;;5053250;28;20409;-54
2022/03/03 07:26:07;;;;;;;31.08;22.58;;;12.00;82.70;;;;;;5072308;28;20524;-54
2022/03/03 07:28:34;;;;;;;33.63;19.70;;;12.80;80.00;;;;;;5083950;28;20420;-54
2022/03/03 07:31:01;;;;;;;32.33;26.27;;;12.80;75.20;;;;;;5087385;28;20390;-55
2022/03/03 07:33:45;;;;;;;35.20;26.00;;;12.30;72.70;;;;;;5076833;28;20394;-54
2022/03/03 07:36:23;;;;;;;40.45;28.27;;;12.40;72.70;;;;;;5091425;28;20390;-54
2022/03/03 07:39:10;;;;;;;35.17;26.42;;;11.40;73.40;;;;;;5072085;28;20391;-57
2022/03/03 07:41:36;;;;;;;36.15;27.70;;;10.90;75.10;;;;;;5071799;28;20394;-53
2022/03/03 07:44:02;;;;;;;42.10;28.48;;;11.30;74.60;;;;;;5053156;28;20470;-54
2022/03/03 07:46:28;;;;;;;34.72;26.70;;;11.20;74.80;;;;;;5071701;28;20475;-54
2022/03/03 07:48:55;;;;;;;32.85;28.17;;;11.80;73.90;;;;;;5070840;28;20418;-54
2022/03/03 07:51:23;;;;;;;36.20;23.70;;;12.40;71.20;;;;;;5071711;28;20399;-57
2022/03/03 07:53:49;;;;;;;35.53;25.25;;;13.00;69.70;;;;;;5071623;28;20430;-58
2022/03/03 07:56:26;;;;;;;37.83;27.73;;;13.30;67.70;;;;;;5071414;28;20872;-55
2022/03/03 07:59:00;;;;;;;32.47;28.23;;;13.50;67.90;;;;;;5070842;28;20415;-55
2022/03/03 08:01:27;;;;;;;31.55;24.58;;;14.20;65.50;;;;;;5071385;28;20379;-55
2022/03/03 08:03:53;;;;;;;34.80;24.75;;;15.60;60.70;;;;;;5071159;28;20380;-55
2022/03/03 08:06:20;;;;;;;32.83;23.38;;;17.20;56.30;;;;;;5053319;28;20384;-55
2022/03/03 08:08:46;;;;;;;29.63;22.17;;;17.90;53.30;;;;;;5071542;28;20721;-55
2022/03/03 08:11:12;;;;;;;33.38;22.60;;;18.00;49.80;;;;;;5070456;28;20386;-55
2022/03/03 08:13:38;;;;;;;31.85;22.20;;;17.80;49.60;;;;;;5071405;28;20392;-55
2022/03/03 08:16:04;;;;;;;29.77;21.53;;;17.70;51.70;;;;;;5070658;28;20380;-55
2022/03/03 08:18:32;;;;;;;31.20;22.48;;;16.20;51.30;;;;;;5071617;28;20911;-55
2022/03/03 08:21:02;;;;;;;31.00;22.08;;;16.10;52.30;;;;;;5070275;28;20473;-55
2022/03/03 08:23:28;;;;;;;32.72;22.83;;;16.30;51.20;;;;;;5052866;28;20416;-55
2022/03/03 08:25:55;;;;;;;34.67;23.55;;;16.30;51.40;;;;;;5070490;28;20458;-55
2022/03/03 08:28:24;;;;;;;32.00;23.63;;;17.00;50.10;;;;;;5071254;28;20403;-55
2022/03/03 08:31:02;;;;;;;29.88;22.80;;;17.30;49.80;;;;;;5070435;28;20395;-58
2022/03/03 08:33:50;;;;;;;34.45;22.90;;;17.70;49.00;;;;;;5071083;28;20395;-55
2022/03/03 08:36:21;;;;;;;33.50;21.63;;;18.00;49.10;;;;;;5052584;28;20478;-55
2022/03/03 08:38:51;;;;;;;32.88;22.13;;;17.90;48.40;;;;;;5071124;28;20380;-57
2022/03/03 08:41:21;;;;;;;34.77;24.10;;;17.70;49.20;;;;;;5071070;28;20857;-55
2022/03/03 08:43:51;;;;;;;34.40;23.17;;;17.20;49.60;;;;;;5070945;28;20384;-56
2022/03/03 08:46:23;;;;;;;32.00;23.50;;;16.70;49.30;;;;;;5070430;28;20458;-55
2022/03/03 08:48:49;;;;;;;31.98;22.15;;;17.50;47.80;;;;;;5070913;28;20900;-58
2022/03/03 08:51:16;;;;;;;31.90;22.43;;;17.90;46.90;;;;;;5070265;28;20851;-55
2022/03/03 08:53:42;;;;;;;33.33;22.75;;;18.40;46.10;;;;;;5070440;28;20505;-56
2022/03/03 08:56:08;;;;;;;30.63;20.30;;;17.90;43.70;;;;;;5069868;28;20398;-55
2022/03/03 08:58:35;;;;;;;30.08;21.05;;;18.20;43.40;;;;;;5070206;28;20392;-55
2022/03/03 09:01:00;;;;;;;31.88;20.30;;;18.20;43.80;;;;;;5069621;28;20430;-56
2022/03/03 09:03:26;;;;;;;34.90;20.90;;;18.30;43.40;;;;;;5070587;28;20411;-55
2022/03/03 09:05:54;;;;;;;29.33;21.38;;;18.20;43.70;;;;;;5069708;28;20745;-57
2022/03/03 09:08:20;;;;;;;27.35;20.30;;;18.40;44.00;;;;;;5070086;28;20841;-56
2022/03/03 09:10:45;;;;;;;37.17;21.17;;;18.40;43.60;;;;;;5070295;28;20379;-55
2022/03/03 09:13:11;;;;;;;33.92;21.45;;;19.20;43.00;;;;;;5068990;28;20457;-56
2022/03/03 09:15:37;;;;;;;29.05;21.40;;;18.80;42.20;;;;;;5069811;28;20383;-56
2022/03/03 09:18:03;;;;;;;28.73;20.60;;;19.90;41.80;;;;;;5069117;28;20880;-56
2022/03/03 09:20:29;;;;;;;32.03;26.08;;;19.50;42.20;;;;;;5069971;28;20412;-56
2022/03/03 09:22:55;;;;;;;28.97;21.20;;;19.00;42.40;;;;;;5068704;28;20908;-56
2022/03/03 09:25:23;;;;;;;30.10;21.02;;;19.20;42.50;;;;;;5069303;28;20410;-56
2022/03/03 09:27:49;;;;;;;27.40;19.80;;;20.20;40.50;;;;;;5069756;28;20387;-57
2022/03/03 09:30:15;;;;;;;27.15;20.73;;;20.00;39.90;;;;;;5069416;28;20380;-56
2022/03/03 09:32:41;;;;;;;26.00;19.92;;;20.70;39.40;;;;;;5070197;28;20402;-56
2022/03/03 09:35:07;;;;;;;26.20;20.30;;;20.50;39.00;;;;;;5069217;28;20387;-56
2022/03/03 09:37:33;;;;;;;28.63;20.50;;;19.90;39.90;;;;;;5069515;28;20802;-57
2022/03/03 09:39:59;;;;;;;29.50;21.85;;;20.00;39.50;;;;;;5069093;28;20412;-56
2022/03/03 09:42:31;;;;;;;28.83;20.63;;;20.10;39.70;;;;;;5051768;28;20392;-56
2022/03/03 09:44:57;;;;;;;26.88;20.25;;;19.80;38.30;;;;;;5068724;28;20395;-55
2022/03/03 09:47:23;;;;;;;28.08;20.88;;;21.30;38.00;;;;;;5069602;28;20415;-56
2022/03/03 09:49:49;;;;;;;31.77;21.77;;;21.60;37.10;;;;;;5051845;28;20877;-56
2022/03/03 09:52:17;;;;;;;28.10;23.17;;;20.30;38.00;;;;;;5068441;28;20386;-56
2022/03/03 09:54:44;;;;;;;32.38;26.77;;;18.30;39.30;;;;;;5069345;28;20395;-58
2022/03/03 09:57:09;;;;;;;29.57;25.20;;;17.80;40.20;;;;;;5068746;28;20380;-56
2022/03/03 09:59:35;;;;;;;30.30;25.67;;;17.90;40.30;;;;;;5069615;28;20407;-56
2022/03/03 10:02:02;;;;;;;31.10;25.00;;;17.80;40.70;;;;;;5051015;28;20487;-55
2022/03/03 10:04:28;;;;;;;32.13;24.35;;;17.90;40.30;;;;;;5051657;28;20403;-56
2022/03/03 10:06:54;;;;;;;28.70;23.67;;;17.30;40.60;;;;;;5068875;28;20737;-56
2022/03/03 10:09:20;;;;;;;31.92;24.70;;;17.50;40.80;;;;;;5069459;28;20850;-56
2022/03/03 10:11:48;;;;;;;30.80;25.42;;;18.00;39.60;;;;;;5069425;28;20391;-56
2022/03/03 10:14:24;;;;;;;30.67;26.60;;;18.30;39.10;;;;;;5050445;28;20893;-56
2022/03/03 10:16:50;;;;;;;28.00;23.90;;;19.30;39.10;;;;;;5069022;28;20376;-59
2022/03/03 10:19:16;;;;;;;29.70;24.67;;;19.70;37.90;;;;;;5068630;28;20889;-56
2022/03/03 10:21:43;;;;;;;31.52;28.25;;;19.80;37.70;;;;;;5069384;28;20487;-56
2022/03/03 10:24:24;;;;;;;27.63;22.98;;;19.20;38.30;;;;;;5070417;28;20402;-56
2022/03/03 10:26:58;;;;;;;31.40;26.15;;;18.90;39.00;;;;;;5073229;28;20742;-58
2022/03/03 10:29:25;;;;;;;29.92;25.02;;;18.00;38.60;;;;;;5073842;28;20423;-56
2022/03/03 10:31:52;;;;;;;29.27;25.80;;;18.50;38.80;;;;;;5073527;28;20383;-59
2022/03/03 10:34:20;;;;;;;31.58;25.20;;;17.70;39.40;;;;;;5072870;28;20380;-56
2022/03/03 10:37:01;;;;;;;29.45;25.90;;;18.20;40.30;;;;;;5073248;28;20525;-58
2022/03/03 10:39:49;;;;;;;29.27;25.88;;;18.30;39.40;;;;;;5073001;28;20403;-56
2022/03/03 10:42:20;;;;;;;29.40;24.10;;;18.60;38.90;;;;;;5072439;28;20391;-56
2022/03/03 10:44:50;;;;;;;30.85;25.58;;;18.20;39.20;;;;;;5073364;28;20371;-56
2022/03/03 10:47:21;;;;;;;28.42;24.65;;;18.40;39.70;;;;;;5072482;28;20380;-56
2022/03/03 10:49:52;;;;;;;29.95;25.27;;;18.40;39.20;;;;;;5073161;28;20403;-56
2022/03/03 10:52:23;;;;;;;30.13;25.67;;;18.10;38.90;;;;;;5072709;28;20376;-57
2022/03/03 10:54:49;;;;;;;32.72;24.98;;;17.20;40.10;;;;;;5054853;28;20726;-56
2022/03/03 10:57:37;;;;;;;29.33;25.33;;;17.10;40.50;;;;;;5072207;28;20525;-56
2022/03/03 11:00:09;;;;;;;32.10;25.63;;;17.30;39.90;;;;;;5072056;28;20860;-56
2022/03/03 11:02:36;;;;;;;28.67;25.23;;;17.10;40.10;;;;;;5072931;28;20414;-57
2022/03/03 11:05:03;;;;;;;31.50;25.58;;;16.60;40.40;;;;;;5072019;28;20441;-56
2022/03/03 11:07:29;;;;;;;31.20;25.90;;;16.80;40.80;;;;;;5072683;28;20776;-55
2022/03/03 11:09:55;;;;;;;29.70;25.20;;;17.20;40.60;;;;;;5071310;28;20388;-56
2022/03/03 11:12:21;;;;;;;34.03;26.20;;;17.00;41.60;;;;;;5055047;28;20383;-56
2022/03/03 11:14:47;;;;;;;31.13;25.95;;;16.50;42.60;;;;;;5072504;28;20861;-56
2022/03/03 11:17:14;;;;;;;32.17;25.88;;;16.90;42.80;;;;;;5071661;28;20526;-56
2022/03/03 11:19:41;;;;;;;33.10;26.00;;;16.40;42.00;;;;;;5071915;28;20415;-56
2022/03/03 11:22:07;;;;;;;31.52;25.95;;;16.30;42.50;;;;;;5071277;28;20422;-56
2022/03/03 11:24:37;;;;;;;34.03;25.60;;;16.50;43.00;;;;;;5072431;28;20405;-56
2022/03/03 11:27:04;;;;;;;32.23;25.37;;;16.30;42.60;;;;;;5071900;28;20486;-56
2022/03/03 11:29:32;;;;;;;33.50;26.05;;;16.50;42.30;;;;;;5072169;28;20410;-56
2022/03/03 11:32:03;;;;;;;31.58;25.88;;;16.50;42.30;;;;;;5071479;28;20873;-56
2022/03/03 11:34:32;;;;;;;33.83;26.35;;;16.50;41.90;;;;;;5072004;28;20403;-56
2022/03/03 11:37:09;;;;;;;32.08;24.70;;;15.90;42.20;;;;;;5070764;28;20799;-57
2022/03/03 11:39:45;;;;;;;31.80;25.77;;;15.70;42.60;;;;;;5054306;28;20810;-57
2022/03/03 11:42:29;;;;;;;36.28;28.08;;;15.70;43.20;;;;;;5071260;28;20390;-57
2022/03/03 11:45:08;;;;;;;35.78;26.80;;;15.10;43.70;;;;;;5071244;28;20383;-59
2022/03/03 11:47:39;;;;;;;35.77;27.47;;;14.80;44.20;;;;;;5071580;28;20559;-56
2022/03/03 11:50:17;;;;;;;32.20;25.42;;;14.60;45.00;;;;;;5070956;28;21176;-56
2022/03/03 11:52:56;;;;;;;35.40;26.55;;;14.50;44.70;;;;;;5071775;28;20387;-56
2022/03/03 11:55:45;;;;;;;33.42;25.70;;;14.20;45.20;;;;;;5072042;28;20376;-57
2022/03/03 11:58:14;;;;;;;34.45;25.80;;;14.20;45.10;;;;;;5070926;28;20387;-56
2022/03/03 12:00:46;;;;;;;36.67;27.20;;;13.80;46.20;;;;;;5071901;28;20423;-56
2022/03/03 12:03:15;;;;;;;38.33;27.80;;;14.00;46.40;;;;;;5070825;28;20452;-56
2022/03/03 12:05:46;;;;;;;34.58;26.90;;;14.10;46.10;;;;;;5053535;28;20753;-56
2022/03/03 12:08:11;;;;;;;35.17;26.58;;;14.30;45.40;;;;;;5070745;28;20917;-56
2022/03/03 12:10:38;;;;;;;32.63;26.80;;;14.20;46.00;;;;;;5071266;28;20380;-56
2022/03/03 12:13:22;;;;;;;36.63;27.63;;;14.20;47.10;;;;;;5070359;28;20372;-56
2022/03/03 12:16:14;;;;;;;35.65;26.88;;;13.70;47.70;;;;;;5071398;28;20385;-56
2022/03/03 12:18:41;;;;;;;37.05;26.80;;;13.80;48.30;;;;;;5043232;28;20404;-56
2022/03/03 12:21:44;;;;;;;35.10;27.73;;;14.20;48.00;;;;;;5052553;28;20924;-56
2022/03/03 12:24:17;;;;;;;34.08;25.20;;;14.00;48.40;;;;;;5069935;28;20841;-56
2022/03/03 12:26:52;;;;;;;36.03;27.90;;;13.90;47.80;;;;;;5070637;28;20410;-56
2022/03/03 12:29:42;;;;;;;37.13;26.13;;;14.10;47.90;;;;;;5070769;28;20384;-56
2022/03/03 12:32:31;;;;;;;37.70;26.02;;;13.80;47.60;;;;;;5070478;28;20400;-56
2022/03/03 12:35:29;;;;;;;34.05;26.60;;;13.70;46.80;;;;;;5052151;28;20386;-56
2022/03/03 12:37:58;;;;;;;39.10;26.80;;;13.40;47.00;;;;;;5070065;28;20373;-59